Time;durP1;ratioP1;P1;durP2;ratioP2;P2;SDS_P1;SDS_P2;PMS_P1;PMS_P2;Temp;Humidity;BMP_temperature;BMP_pressure;BME280_temperature;BME280_humidity;BME280_pressure;Samples;Min_cycle;Max_cycle;Signal;HPM_P1;HPM_P2
2022/03/24 00:00:15;;;;;;;69.53;30.95;;;;;;;-142.91;100.00;56616.03;4983166;28;22095;-71
2022/03/24 00:02:42;;;;;;;63.67;28.63;;;;;;;-142.91;100.00;56616.03;4982925;28;20230;-70
2022/03/24 00:05:11;;;;;;;66.10;26.58;;;;;;;-142.91;100.00;56616.03;4984566;28;20254;-71
2022/03/24 00:07:38;;;;;;;48.08;22.95;;;;;;;-142.91;100.00;56616.03;4985913;28;20324;-71
2022/03/24 00:10:06;;;;;;;52.75;23.63;;;;;;;-142.91;100.00;56616.03;4985525;28;20197;-72
2022/03/24 00:12:34;;;;;;;65.18;26.10;;;;;;;-142.91;100.00;56616.03;4984381;28;20229;-72
2022/03/24 00:15:01;;;;;;;49.65;21.08;;;;;;;-142.91;100.00;56616.03;4985816;28;20201;-71
2022/03/24 00:17:28;;;;;;;43.10;20.30;;;;;;;-142.91;100.00;56616.03;4984842;28;20451;-71
2022/03/24 00:19:54;;;;;;;51.33;23.10;;;;;;;-142.91;100.00;56616.03;4984107;28;20204;-71
2022/03/24 00:22:23;;;;;;;64.57;22.10;;;;;;;-142.91;100.00;56616.03;4985088;28;20227;-70
2022/03/24 00:24:54;;;;;;;53.33;21.37;;;;;;;-142.91;100.00;56616.03;4985809;28;20695;-71
2022/03/24 00:27:21;;;;;;;43.45;20.48;;;;;;;-142.91;100.00;56616.03;4985205;28;20638;-71
2022/03/24 00:29:48;;;;;;;44.95;19.85;;;;;;;-142.91;100.00;56616.03;4984341;28;20212;-71
2022/03/24 00:32:15;;;;;;;41.08;20.42;;;;;;;-142.91;100.00;56616.03;4984517;28;20236;-72
2022/03/24 00:34:45;;;;;;;46.03;19.33;;;;;;;-142.91;100.00;56616.03;4984178;28;20197;-72
2022/03/24 00:37:12;;;;;;;39.20;18.53;;;;;;;-142.91;100.00;56616.03;4984733;28;20666;-72
2022/03/24 00:39:40;;;;;;;37.20;18.55;;;;;;;-142.91;100.00;56616.03;4986432;28;20704;-72
2022/03/24 00:42:11;;;;;;;50.57;19.57;;;;;;;-142.91;100.00;56616.03;4983737;28;20203;-71
2022/03/24 00:44:40;;;;;;;36.80;18.67;;;;;;;-142.91;100.00;56616.03;4984266;28;20254;-71
2022/03/24 00:47:07;;;;;;;40.78;17.63;;;;;;;-142.91;100.00;56616.03;4982366;28;20651;-71
2022/03/24 00:49:34;;;;;;;37.28;19.17;;;;;;;-142.91;100.00;56616.03;4982645;28;20196;-75
2022/03/24 00:52:02;;;;;;;36.05;18.00;;;;;;;-142.91;100.00;56616.03;4982796;28;20290;-71
2022/03/24 00:54:29;;;;;;;36.60;17.42;;;;;;;-142.91;100.00;56616.03;4982384;28;20227;-71
2022/03/24 00:56:57;;;;;;;31.33;17.10;;;;;;;-142.91;100.00;56616.03;4982897;28;20565;-70
2022/03/24 00:59:24;;;;;;;35.65;16.27;;;;;;;-142.91;100.00;56616.03;4984173;28;20861;-72
2022/03/24 01:01:52;;;;;;;33.42;16.08;;;;;;;-142.91;100.00;56616.03;4983025;28;20229;-71
2022/03/24 01:04:19;;;;;;;33.03;16.02;;;;;;;-142.91;100.00;56616.03;4983927;28;20664;-71
2022/03/24 01:06:46;;;;;;;29.67;15.50;;;;;;;-142.91;100.00;56616.03;4982664;28;20768;-71
2022/03/24 01:09:12;;;;;;;36.72;17.58;;;;;;;-142.91;100.00;56616.03;4983547;28;20227;-70
2022/03/24 01:11:40;;;;;;;37.45;17.67;;;;;;;-142.91;100.00;56616.03;4984860;28;21160;-70
2022/03/24 01:14:09;;;;;;;42.07;18.57;;;;;;;-142.91;100.00;56616.03;4982190;28;20633;-71
2022/03/24 01:16:36;;;;;;;32.67;17.63;;;;;;;-142.91;100.00;56616.03;4984704;28;20217;-70
2022/03/24 01:19:03;;;;;;;44.47;18.38;;;;;;;-142.91;100.00;56616.03;4983673;28;20287;-71
2022/03/24 01:21:29;;;;;;;35.85;17.15;;;;;;;-142.91;100.00;56616.03;4982599;28;20211;-71
2022/03/24 01:23:56;;;;;;;28.63;16.87;;;;;;;-142.91;100.00;56616.03;4985569;28;20212;-71
2022/03/24 01:26:23;;;;;;;32.10;15.70;;;;;;;-142.91;100.00;56616.03;4984941;28;20273;-72
2022/03/24 01:28:50;;;;;;;34.25;14.05;;;;;;;-142.91;100.00;56616.03;4985446;28;20200;-71
2022/03/24 01:31:20;;;;;;;32.50;14.20;;;;;;;-142.91;100.00;56616.03;4983275;28;20209;-71
2022/03/24 01:33:47;;;;;;;33.78;14.00;;;;;;;-142.91;100.00;56616.03;4985545;28;20256;-71
2022/03/24 01:36:16;;;;;;;23.50;13.73;;;;;;;-142.91;100.00;56616.03;4983241;28;20233;-71
2022/03/24 01:38:43;;;;;;;30.73;14.23;;;;;;;-142.91;100.00;56616.03;4984630;28;20285;-71
2022/03/24 01:41:10;;;;;;;30.38;14.40;;;;;;;-142.91;100.00;56616.03;4983294;28;20205;-71
2022/03/24 01:43:37;;;;;;;27.00;12.05;;;;;;;-142.91;100.00;56616.03;4983316;28;21008;-70
2022/03/24 01:46:04;;;;;;;28.15;13.55;;;;;;;-142.91;100.00;56616.03;4983757;28;20216;-70
2022/03/24 01:48:32;;;;;;;26.63;13.67;;;;;;;-142.91;100.00;56616.03;4985141;28;20249;-71
2022/03/24 01:50:59;;;;;;;28.60;13.05;;;;;;;-142.91;100.00;56616.03;4985427;28;20201;-70
2022/03/24 01:53:26;;;;;;;26.47;13.77;;;;;;;-142.91;100.00;56616.03;4984150;28;20302;-71
2022/03/24 01:55:54;;;;;;;28.92;13.18;;;;;;;-142.91;100.00;56616.03;4984284;28;20277;-71
2022/03/24 01:58:23;;;;;;;27.87;12.90;;;;;;;-142.91;100.00;56616.03;4982506;28;20293;-71
2022/03/24 02:00:51;;;;;;;29.70;14.30;;;;;;;-142.91;100.00;56616.03;4981055;28;20201;-71
2022/03/24 02:03:20;;;;;;;24.63;13.43;;;;;;;-142.91;100.00;56616.03;4983362;28;20208;-71
2022/03/24 02:05:48;;;;;;;30.38;13.43;;;;;;;-142.91;100.00;56616.03;4982811;28;20201;-70
2022/03/24 02:08:15;;;;;;;30.27;14.80;;;;;;;-142.91;100.00;56616.03;4983310;28;20503;-71
2022/03/24 02:10:42;;;;;;;31.47;14.73;;;;;;;-142.91;100.00;56616.03;4983856;28;20257;-71
2022/03/24 02:13:09;;;;;;;28.00;13.68;;;;;;;-142.91;100.00;56616.03;4983836;28;20232;-71
2022/03/24 02:15:36;;;;;;;27.52;14.48;;;;;;;-142.91;100.00;56616.03;4983879;28;20207;-71
2022/03/24 02:18:02;;;;;;;45.73;21.47;;;;;;;-142.91;100.00;56616.03;4982802;28;20324;-71
2022/03/24 02:20:33;;;;;;;75.15;33.15;;;;;;;-142.91;100.00;56616.03;4982574;28;20286;-71
2022/03/24 02:23:02;;;;;;;48.33;20.13;;;;;;;-142.91;100.00;56616.03;4981342;28;21070;-71
2022/03/24 02:25:32;;;;;;;34.83;16.33;;;;;;;-142.91;100.00;56616.03;4979676;28;20707;-72
2022/03/24 02:28:02;;;;;;;38.42;17.95;;;;;;;-142.91;100.00;56616.03;4980031;28;20208;-71
2022/03/24 02:30:30;;;;;;;35.13;16.17;;;;;;;-142.91;100.00;56616.03;4980669;28;20213;-71
2022/03/24 02:32:57;;;;;;;31.05;14.05;;;;;;;-142.91;100.00;56616.03;4979934;28;20352;-71
2022/03/24 02:35:24;;;;;;;36.13;15.23;;;;;;;-142.91;100.00;56616.03;4981024;28;20201;-71
2022/03/24 02:37:50;;;;;;;65.35;28.88;;;;;;;-142.91;100.00;56616.03;4981739;28;20240;-72
2022/03/24 02:40:19;;;;;;;53.90;24.67;;;;;;;-142.91;100.00;56616.03;4980659;28;20232;-71
2022/03/24 02:42:47;;;;;;;38.00;18.17;;;;;;;-142.91;100.00;56616.03;4980942;28;22185;-71
2022/03/24 02:45:15;;;;;;;32.17;15.48;;;;;;;-142.91;100.00;56616.03;4979351;28;20209;-71
2022/03/24 02:47:44;;;;;;;29.60;14.10;;;;;;;-142.91;100.00;56616.03;4979860;28;20197;-71
2022/03/24 02:50:11;;;;;;;23.63;13.80;;;;;;;-142.91;100.00;56616.03;4979883;28;20240;-70
2022/03/24 02:52:38;;;;;;;27.52;13.20;;;;;;;-142.91;100.00;56616.03;4980735;28;20197;-71
2022/03/24 02:55:07;;;;;;;31.17;13.97;;;;;;;-142.91;100.00;56616.03;4979271;28;20735;-71
2022/03/24 02:57:36;;;;;;;26.40;13.10;;;;;;;-142.91;100.00;56616.03;4980573;28;20200;-72
2022/03/24 03:00:04;;;;;;;24.37;12.40;;;;;;;-142.91;100.00;56616.03;4980839;28;20220;-70
2022/03/24 03:02:31;;;;;;;28.37;12.70;;;;;;;-142.91;100.00;56616.03;4980127;28;20344;-70
2022/03/24 03:04:58;;;;;;;21.33;12.33;;;;;;;-142.91;100.00;56616.03;4981386;28;20203;-70
2022/03/24 03:07:24;;;;;;;28.37;12.33;;;;;;;-142.91;100.00;56616.03;4980272;28;20309;-70
2022/03/24 03:09:51;;;;;;;21.13;10.47;;;;;;;-142.91;100.00;56616.03;4981581;28;20221;-70
2022/03/24 03:12:18;;;;;;;24.80;10.73;;;;;;;-142.91;100.00;56616.03;4980269;28;20719;-70
2022/03/24 03:14:47;;;;;;;23.03;10.73;;;;;;;-142.91;100.00;56616.03;4980737;28;20236;-70
2022/03/24 03:17:16;;;;;;;27.77;10.77;;;;;;;-142.91;100.00;56616.03;4980256;28;20206;-70
2022/03/24 03:19:43;;;;;;;21.70;11.13;;;;;;;-142.91;100.00;56616.03;4981515;28;20435;-71
2022/03/24 03:22:10;;;;;;;19.50;11.87;;;;;;;-142.91;100.00;56616.03;4982111;28;20200;-69
2022/03/24 03:24:39;;;;;;;21.50;13.67;;;;;;;-142.91;100.00;56616.03;4976952;28;20208;-70
2022/03/24 03:27:06;;;;;;;31.87;12.13;;;;;;;-142.91;100.00;56616.03;4982285;28;20349;-70
2022/03/24 03:29:33;;;;;;;26.80;12.00;;;;;;;-142.91;100.00;56616.03;4981582;28;20517;-69
2022/03/24 03:32:02;;;;;;;26.13;12.00;;;;;;;-142.91;100.00;56616.03;4979359;28;20258;-70
2022/03/24 03:34:29;;;;;;;21.27;11.13;;;;;;;-142.91;100.00;56616.03;4981507;28;20417;-70
2022/03/24 03:36:56;;;;;;;23.63;11.27;;;;;;;-142.91;100.00;56616.03;4981535;28;20227;-70
2022/03/24 03:39:24;;;;;;;29.37;13.23;;;;;;;-142.91;100.00;56616.03;4982113;28;20205;-71
2022/03/24 03:41:52;;;;;;;28.43;12.33;;;;;;;-142.91;100.00;56616.03;4979348;28;20204;-70
2022/03/24 03:44:19;;;;;;;28.07;12.63;;;;;;;-142.91;100.00;56616.03;4982210;28;20696;-71
2022/03/24 03:46:47;;;;;;;21.20;11.67;;;;;;;-142.91;100.00;56616.03;4980909;28;20207;-71
2022/03/24 03:49:15;;;;;;;35.40;11.93;;;;;;;-142.91;100.00;56616.03;4980470;28;20700;-71
2022/03/24 03:51:42;;;;;;;23.80;11.63;;;;;;;-142.91;100.00;56616.03;4981546;28;20255;-71
2022/03/24 03:54:08;;;;;;;23.92;11.25;;;;;;;-142.91;100.00;56616.03;4980643;28;20687;-71
2022/03/24 03:56:36;;;;;;;32.30;12.77;;;;;;;-142.91;100.00;56616.03;4980543;28;20295;-71
2022/03/24 03:59:03;;;;;;;30.50;13.10;;;;;;;-142.91;100.00;56616.03;4981177;28;20204;-71
2022/03/24 04:01:30;;;;;;;22.63;11.37;;;;;;;-142.91;100.00;56616.03;4980568;28;20233;-71
2022/03/24 04:03:57;;;;;;;25.23;11.67;;;;;;;-142.91;100.00;56616.03;4980288;28;20577;-71
2022/03/24 04:06:26;;;;;;;22.13;12.33;;;;;;;-142.91;100.00;56616.03;4980763;28;20261;-71
2022/03/24 04:08:52;;;;;;;25.10;12.40;;;;;;;-142.91;100.00;56616.03;4979873;28;20223;-71
2022/03/24 04:11:19;;;;;;;28.13;12.20;;;;;;;-142.91;100.00;56616.03;4981731;28;20688;-71
2022/03/24 04:13:46;;;;;;;46.00;12.87;;;;;;;-142.91;100.00;56616.03;4984260;28;20753;-71
2022/03/24 04:16:13;;;;;;;28.17;12.87;;;;;;;-142.91;100.00;56616.03;4983592;28;20201;-71
2022/03/24 04:18:40;;;;;;;26.10;13.37;;;;;;;-142.91;100.00;56616.03;4983642;28;20236;-71
2022/03/24 04:21:08;;;;;;;35.13;12.97;;;;;;;-142.91;100.00;56616.03;4985488;28;20237;-71
2022/03/24 04:23:37;;;;;;;29.37;13.07;;;;;;;-142.91;100.00;56616.03;4984429;28;20216;-71
2022/03/24 04:26:04;;;;;;;26.07;14.60;;;;;;;-142.91;100.00;56616.03;4984739;28;20281;-71
2022/03/24 04:28:31;;;;;;;29.83;14.27;;;;;;;-142.91;100.00;56616.03;4982959;28;20200;-71
2022/03/24 04:30:58;;;;;;;35.27;12.53;;;;;;;-142.91;100.00;56616.03;4984675;28;20208;-71
2022/03/24 04:33:25;;;;;;;21.27;10.50;;;;;;;-142.91;100.00;56616.03;4984867;28;20243;-71
2022/03/24 04:35:52;;;;;;;20.50;10.57;;;;;;;-142.91;100.00;56616.03;4984663;28;20321;-71
2022/03/24 04:38:19;;;;;;;23.13;11.57;;;;;;;-142.91;100.00;56616.03;4984247;28;20201;-71
2022/03/24 04:40:47;;;;;;;22.23;11.10;;;;;;;-142.91;100.00;56616.03;4984334;28;20212;-71
2022/03/24 04:43:15;;;;;;;24.87;10.67;;;;;;;-142.91;100.00;56616.03;4984717;28;20204;-71
2022/03/24 04:45:42;;;;;;;21.37;10.57;;;;;;;-142.91;100.00;56616.03;4982772;28;20204;-69
2022/03/24 04:48:09;;;;;;;26.13;10.87;;;;;;;-142.91;100.00;56616.03;4984968;28;20215;-70
2022/03/24 04:50:36;;;;;;;21.63;11.57;;;;;;;-142.91;100.00;56616.03;4984777;28;20204;-70
2022/03/24 04:53:03;;;;;;;19.63;11.80;;;;;;;-142.91;100.00;56616.03;4984123;28;20609;-71
2022/03/24 04:55:30;;;;;;;27.00;12.87;;;;;;;-142.91;100.00;56616.03;4984070;28;20452;-70
2022/03/24 04:57:58;;;;;;;32.78;14.45;;;;;;;-142.91;100.00;56616.03;4984106;28;20622;-71
2022/03/24 05:00:26;;;;;;;27.73;13.60;;;;;;;-142.91;100.00;56616.03;4983026;28;20229;-71
2022/03/24 05:02:52;;;;;;;32.83;14.82;;;;;;;-142.91;100.00;56616.03;4984255;28;20267;-71
2022/03/24 05:05:19;;;;;;;29.40;14.03;;;;;;;-142.91;100.00;56616.03;4983222;28;22357;-71
2022/03/24 05:07:46;;;;;;;32.90;15.20;;;;;;;-142.91;100.00;56616.03;4983553;28;20215;-71
2022/03/24 05:10:12;;;;;;;31.60;14.07;;;;;;;-142.91;100.00;56616.03;4983662;28;20309;-71
2022/03/24 05:12:41;;;;;;;29.67;13.75;;;;;;;-142.91;100.00;56616.03;4985096;28;20285;-71
2022/03/24 05:15:14;;;;;;;31.40;14.10;;;;;;;-142.91;100.00;56616.03;4984668;28;20240;-71
2022/03/24 05:17:41;;;;;;;27.92;14.55;;;;;;;-142.91;100.00;56616.03;4984153;28;20827;-71
2022/03/24 05:20:09;;;;;;;30.38;13.90;;;;;;;-142.91;100.00;56616.03;4983592;28;20216;-70
2022/03/24 05:22:37;;;;;;;38.22;15.10;;;;;;;-142.91;100.00;56616.03;4982903;28;20239;-70
2022/03/24 05:25:05;;;;;;;26.23;12.18;;;;;;;-142.91;100.00;56616.03;4983730;28;21457;-70
2022/03/24 05:27:32;;;;;;;34.03;17.67;;;;;;;-142.91;100.00;56616.03;4983975;28;20200;-70
2022/03/24 05:29:59;;;;;;;30.88;17.90;;;;;;;-142.91;100.00;56616.03;4983685;28;20301;-70
2022/03/24 05:32:27;;;;;;;30.05;19.35;;;;;;;-142.91;100.00;56616.03;4984592;28;20604;-70
2022/03/24 05:34:54;;;;;;;33.92;21.02;;;;;;;-142.91;100.00;56616.03;4983636;28;20228;-70
2022/03/24 05:37:21;;;;;;;29.67;18.88;;;;;;;-142.91;100.00;56616.03;4983284;28;20296;-71
2022/03/24 05:39:48;;;;;;;28.23;16.25;;;;;;;-142.91;100.00;56616.03;4984048;28;20655;-72
2022/03/24 05:42:15;;;;;;;35.15;17.15;;;;;;;-142.91;100.00;56616.03;4983931;28;20722;-70
2022/03/24 05:44:42;;;;;;;30.65;14.40;;;;;;;-142.91;100.00;56616.03;4983509;28;20208;-71
2022/03/24 05:47:09;;;;;;;35.60;14.90;;;;;;;-142.91;100.00;56616.03;4984096;28;20238;-71
2022/03/24 05:49:38;;;;;;;30.10;14.25;;;;;;;-142.91;100.00;56616.03;4982402;28;20201;-71
2022/03/24 05:52:05;;;;;;;33.97;15.65;;;;;;;-142.91;100.00;56616.03;4982323;28;20282;-71
2022/03/24 05:54:32;;;;;;;21.30;14.43;;;;;;;-142.91;100.00;56616.03;4979545;28;20233;-71
2022/03/24 05:56:59;;;;;;;30.83;16.02;;;;;;;-142.91;100.00;56616.03;4982460;28;20200;-71
2022/03/24 05:59:25;;;;;;;28.20;15.30;;;;;;;-142.91;100.00;56616.03;4981405;28;20201;-71
2022/03/24 06:01:52;;;;;;;33.28;15.23;;;;;;;-142.91;100.00;56616.03;4980699;28;20609;-71
2022/03/24 06:04:21;;;;;;;31.67;16.55;;;;;;;-142.91;100.00;56616.03;4980219;28;20683;-70
2022/03/24 06:06:56;;;;;;;39.92;16.45;;;;;;;-142.91;100.00;56616.03;4980613;28;20237;-71
2022/03/24 06:09:23;;;;;;;25.85;15.35;;;;;;;-142.91;100.00;56616.03;4982234;28;20210;-70
2022/03/24 06:11:51;;;;;;;33.60;14.93;;;;;;;-142.91;100.00;56616.03;4982144;28;20639;-70
2022/03/24 06:14:19;;;;;;;29.90;16.25;;;;;;;-142.91;100.00;56616.03;4981921;28;20236;-70
2022/03/24 06:16:46;;;;;;;28.80;15.43;;;;;;;-142.91;100.00;56616.03;4981238;28;20209;-70
2022/03/24 06:19:14;;;;;;;38.88;17.45;;;;;;;-142.91;100.00;56616.03;4981263;28;20668;-70
2022/03/24 06:21:41;;;;;;;40.30;18.52;;;;;;;-142.91;100.00;56616.03;4980825;28;20404;-70
2022/03/24 06:24:09;;;;;;;41.20;19.50;;;;;;;-142.91;100.00;56616.03;4981348;28;20204;-71
2022/03/24 06:26:36;;;;;;;46.97;23.83;;;;;;;-142.91;100.00;56616.03;4982223;28;20265;-70
2022/03/24 06:29:03;;;;;;;52.92;24.63;;;;;;;-142.91;100.00;56616.03;4980534;28;21486;-70
2022/03/24 06:31:30;;;;;;;45.72;22.63;;;;;;;-142.91;100.00;56616.03;4981861;28;20778;-71
2022/03/24 06:33:57;;;;;;;43.78;22.10;;;;;;;-142.91;100.00;56616.03;4981263;28;20251;-71
2022/03/24 06:36:24;;;;;;;48.75;24.35;;;;;;;-142.91;100.00;56616.03;4982883;28;20206;-71
2022/03/24 06:38:51;;;;;;;46.95;23.80;;;;;;;-142.91;100.00;56616.03;4982816;28;20196;-71
2022/03/24 06:41:19;;;;;;;48.95;23.95;;;;;;;-142.91;100.00;56616.03;4983533;28;21665;-71
2022/03/24 06:43:47;;;;;;;42.30;23.60;;;;;;;-142.91;100.00;56616.03;4982427;28;20205;-71
2022/03/24 06:46:14;;;;;;;49.47;24.60;;;;;;;-142.91;100.00;56616.03;4982205;28;20270;-71
2022/03/24 06:48:41;;;;;;;46.28;25.83;;;;;;;-142.91;100.00;56616.03;4982117;28;20211;-71
2022/03/24 06:51:08;;;;;;;56.70;26.60;;;;;;;-142.91;100.00;56616.03;4983867;28;20205;-71
2022/03/24 06:53:35;;;;;;;52.55;25.45;;;;;;;-142.91;100.00;56616.03;4983002;28;20628;-71
2022/03/24 06:56:02;;;;;;;48.33;25.77;;;;;;;-142.91;100.00;56616.03;4982790;28;20236;-70
2022/03/24 06:58:30;;;;;;;47.35;24.67;;;;;;;-142.91;100.00;56616.03;4983076;28;20216;-71
2022/03/24 07:00:57;;;;;;;39.83;21.35;;;;;;;-142.91;100.00;56616.03;4982267;28;20216;-70
2022/03/24 07:03:24;;;;;;;50.53;24.40;;;;;;;-142.91;100.00;56616.03;4982542;28;20209;-71
2022/03/24 07:05:51;;;;;;;48.15;24.20;;;;;;;-142.91;100.00;56616.03;4982904;28;20206;-71
2022/03/24 07:08:18;;;;;;;49.15;22.98;;;;;;;-142.91;100.00;56616.03;4983834;28;20201;-70
2022/03/24 07:10:45;;;;;;;75.18;32.63;;;;;;;-142.91;100.00;56616.03;4981739;28;20679;-70
2022/03/24 07:13:12;;;;;;;76.60;30.95;;;;;;;-142.91;100.00;56616.03;4981797;28;20232;-70
2022/03/24 07:15:41;;;;;;;38.55;22.90;;;;;;;-142.91;100.00;56616.03;4981501;28;20305;-70
2022/03/24 07:18:08;;;;;;;33.97;19.58;;;;;;;-142.91;100.00;56616.03;4982637;28;20208;-70
2022/03/24 07:20:35;;;;;;;51.85;20.25;;;;;;;-142.91;100.00;56616.03;4981696;28;20651;-69
2022/03/24 07:23:03;;;;;;;34.30;18.70;;;;;;;-142.91;100.00;56616.03;4982554;28;20226;-70
2022/03/24 07:25:30;;;;;;;32.75;19.85;;;;;;;-142.91;100.00;56616.03;4981917;28;20214;-70
2022/03/24 07:27:57;;;;;;;28.80;18.48;;;;;;;-142.91;100.00;56616.03;4981723;28;20204;-70
2022/03/24 07:30:24;;;;;;;32.25;18.20;;;;;;;-142.91;100.00;56616.03;4982078;28;21252;-70
2022/03/24 07:32:54;;;;;;;36.50;18.45;;;;;;;-142.91;100.00;56616.03;4982455;28;20784;-71
2022/03/24 07:35:24;;;;;;;38.13;15.93;;;;;;;-142.91;100.00;56616.03;4982294;28;20764;-70
2022/03/24 07:37:51;;;;;;;36.33;20.50;;;;;;;-142.91;100.00;56616.03;4982643;28;20219;-70
2022/03/24 07:40:21;;;;;;;48.10;23.55;;;;;;;-142.91;100.00;56616.03;4981412;28;20204;-70
2022/03/24 07:42:52;;;;;;;32.15;18.13;;;;;;;-142.91;100.00;56616.03;4981021;28;20197;-71
2022/03/24 07:45:19;;;;;;;27.40;16.60;;;;;;;-142.91;100.00;56616.03;4980814;28;20212;-71
2022/03/24 07:48:13;;;;;;;36.80;18.40;;;;;;;-142.91;100.00;56616.03;4984688;28;20211;-70
2022/03/24 07:50:42;;;;;;;32.53;17.08;;;;;;;-142.91;100.00;56616.03;4984395;28;20253;-70
2022/03/24 07:53:34;;;;;;;39.72;18.13;;;;;;;-142.91;100.00;56616.03;4982946;28;20193;-70
2022/03/24 07:56:02;;;;;;;38.70;16.88;;;;;;;-142.91;100.00;56616.03;4982243;28;20707;-70
2022/03/24 07:58:29;;;;;;;24.13;14.45;;;;;;;-142.91;100.00;56616.03;4985755;28;20589;-71
2022/03/24 08:00:57;;;;;;;29.05;14.07;;;;;;;-142.91;100.00;56616.03;4985484;28;20633;-70
2022/03/24 08:03:25;;;;;;;29.65;14.20;;;;;;;-142.91;100.00;56616.03;4984290;28;20719;-70
2022/03/24 08:05:53;;;;;;;21.08;12.73;;;;;;;-142.91;100.00;56616.03;4983049;28;20205;-70
2022/03/24 08:08:20;;;;;;;30.52;13.10;;;;;;;-142.91;100.00;56616.03;4983688;28;20297;-69
2022/03/24 08:10:48;;;;;;;22.25;12.07;;;;;;;-142.91;100.00;56616.03;4984282;28;20286;-70
2022/03/24 08:13:16;;;;;;;28.73;16.35;;;;;;;-142.91;100.00;56616.03;4983653;28;21713;-71
2022/03/24 08:15:44;;;;;;;29.77;14.35;;;;;;;-142.91;100.00;56616.03;4982498;28;20227;-71
2022/03/24 08:18:12;;;;;;;20.70;12.43;;;;;;;-142.91;100.00;56616.03;4984642;28;20292;-70
2022/03/24 08:20:42;;;;;;;27.13;11.25;;;;;;;-142.91;100.00;56616.03;4984341;28;20209;-69
2022/03/24 08:23:10;;;;;;;22.58;13.30;;;;;;;-142.91;100.00;56616.03;4986196;28;20197;-69
2022/03/24 08:25:37;;;;;;;23.95;11.88;;;;;;;-142.91;100.00;56616.03;4984540;28;20253;-69
2022/03/24 08:28:05;;;;;;;22.80;12.52;;;;;;;-142.91;100.00;56616.03;4985276;28;20208;-71
2022/03/24 08:30:32;;;;;;;25.27;10.57;;;;;;;-142.91;100.00;56616.03;4984408;28;20281;-70
2022/03/24 08:32:59;;;;;;;20.38;10.52;;;;;;;-142.91;100.00;56616.03;4984870;28;20232;-70
2022/03/24 08:35:25;;;;;;;15.35;10.82;;;;;;;-142.91;100.00;56616.03;4983746;28;20255;-71
2022/03/24 08:37:54;;;;;;;21.17;10.20;;;;;;;-142.91;100.00;56616.03;4984103;28;20204;-71
2022/03/24 08:40:21;;;;;;;15.10;9.95;;;;;;;-142.91;100.00;56616.03;4984729;28;20200;-70
2022/03/24 08:42:48;;;;;;;15.20;8.40;;;;;;;-142.91;100.00;56616.03;4984581;28;20335;-70
2022/03/24 08:45:15;;;;;;;17.27;8.68;;;;;;;-142.91;100.00;56616.03;4984261;28;20208;-70
2022/03/24 08:47:43;;;;;;;15.48;8.90;;;;;;;-142.91;100.00;56616.03;4983836;28;20276;-69
2022/03/24 08:50:12;;;;;;;15.30;7.70;;;;;;;-142.91;100.00;56616.03;4985389;28;20234;-70
2022/03/24 08:52:39;;;;;;;13.10;7.93;;;;;;;-142.91;100.00;56616.03;4985246;28;21646;-69
2022/03/24 08:55:10;;;;;;;11.32;7.32;;;;;;;-142.91;100.00;56616.03;4983577;28;20249;-70
2022/03/24 08:57:37;;;;;;;10.98;7.85;;;;;;;-142.91;100.00;56616.03;4983212;28;20225;-69
2022/03/24 09:00:12;;;;;;;22.75;8.20;;;;;;;-142.91;100.00;56616.03;4983927;28;20219;-70
2022/03/24 09:02:39;;;;;;;11.57;7.50;;;;;;;-142.91;100.00;56616.03;4984324;28;20710;-70
2022/03/24 09:05:06;;;;;;;13.50;8.10;;;;;;;-142.91;100.00;56616.03;4984125;28;20211;-70
2022/03/24 09:07:33;;;;;;;13.55;7.85;;;;;;;-142.91;100.00;56616.03;4983543;28;20599;-70
2022/03/24 09:10:00;;;;;;;11.52;7.35;;;;;;;-142.91;100.00;56616.03;4984778;28;20227;-70
2022/03/24 09:12:29;;;;;;;15.80;7.53;;;;;;;-142.91;100.00;56616.03;4983862;28;20747;-70
2022/03/24 09:14:56;;;;;;;14.88;8.15;;;;;;;-142.91;100.00;56616.03;4984515;28;20232;-69
2022/03/24 09:17:23;;;;;;;11.52;6.72;;;;;;;-142.91;100.00;56616.03;4984593;28;20196;-68
2022/03/24 09:19:51;;;;;;;19.38;7.10;;;;;;;-142.91;100.00;56616.03;4983772;28;20341;-69
2022/03/24 09:22:17;;;;;;;9.27;6.43;;;;;;;-142.91;100.00;56616.03;4982821;28;20266;-69
2022/03/24 09:24:44;;;;;;;10.95;6.28;;;;;;;-142.91;100.00;56616.03;4981052;28;20211;-70
2022/03/24 09:27:11;;;;;;;7.82;6.35;;;;;;;-142.91;100.00;56616.03;4984132;28;20236;-70
2022/03/24 09:29:49;;;;;;;10.80;6.55;;;;;;;-142.91;100.00;56616.03;4984347;28;20200;-70
2022/03/24 09:32:17;;;;;;;12.80;6.40;;;;;;;-142.91;100.00;56616.03;4982474;28;20208;-69
2022/03/24 09:34:44;;;;;;;10.23;6.45;;;;;;;-142.91;100.00;56616.03;4984240;28;20205;-70
2022/03/24 09:37:12;;;;;;;14.18;7.10;;;;;;;-142.91;100.00;56616.03;4983529;28;20197;-70
2022/03/24 09:39:40;;;;;;;12.23;6.35;;;;;;;-142.91;100.00;56616.03;4983667;28;20254;-70
2022/03/24 09:42:07;;;;;;;16.15;7.13;;;;;;;-142.91;100.00;56616.03;4983431;28;20214;-70
2022/03/24 09:44:34;;;;;;;9.85;6.45;;;;;;;-142.91;100.00;56616.03;4983814;28;20212;-70
2022/03/24 09:47:02;;;;;;;7.03;6.18;;;;;;;-142.91;100.00;56616.03;4982544;28;20243;-70
2022/03/24 09:49:29;;;;;;;9.02;6.40;;;;;;;-142.91;100.00;56616.03;4983290;28;20236;-70
2022/03/24 09:51:56;;;;;;;9.80;6.20;;;;;;;-142.91;100.00;56616.03;4983670;28;20197;-70
2022/03/24 09:54:23;;;;;;;9.43;6.30;;;;;;;-142.91;100.00;56616.03;4983982;28;20253;-69
2022/03/24 09:56:49;;;;;;;7.25;6.50;;;;;;;-142.91;100.00;56616.03;4982666;28;20229;-69
2022/03/24 09:59:17;;;;;;;13.18;6.93;;;;;;;-142.91;100.00;56616.03;4984092;28;20589;-70
2022/03/24 10:01:44;;;;;;;8.95;6.18;;;;;;;-142.91;100.00;56616.03;4984099;28;20233;-70
2022/03/24 10:04:14;;;;;;;7.28;5.85;;;;;;;-142.91;100.00;56616.03;4983425;28;20245;-70
2022/03/24 10:06:59;;;;;;;9.25;6.10;;;;;;;-142.91;100.00;56616.03;4983754;28;20207;-69
2022/03/24 10:09:40;;;;;;;11.65;6.50;;;;;;;-142.91;100.00;56616.03;4983543;28;20199;-69
2022/03/24 10:12:08;;;;;;;9.85;7.18;;;;;;;-142.91;100.00;56616.03;4983251;28;20212;-69
2022/03/24 10:14:36;;;;;;;6.75;6.00;;;;;;;-142.91;100.00;56616.03;4983933;28;20699;-70
2022/03/24 10:17:08;;;;;;;16.20;7.72;;;;;;;-142.91;100.00;56616.03;4982372;28;20229;-70
2022/03/24 10:19:37;;;;;;;6.93;6.07;;;;;;;-142.91;100.00;56616.03;4979906;28;20200;-70
2022/03/24 10:22:11;;;;;;;7.82;6.38;;;;;;;-142.91;100.00;56616.03;4983187;28;20201;-70
2022/03/24 10:24:44;;;;;;;8.00;6.95;;;;;;;-142.91;100.00;56616.03;4983015;28;20222;-70
2022/03/24 10:27:13;;;;;;;9.75;6.35;;;;;;;-142.91;100.00;56616.03;4982447;28;20315;-71
2022/03/24 10:29:40;;;;;;;8.93;6.20;;;;;;;-142.91;100.00;56616.03;4981538;28;20593;-71
2022/03/24 10:32:14;;;;;;;10.27;6.63;;;;;;;-142.91;100.00;56616.03;4982219;28;20205;-71
2022/03/24 10:34:43;;;;;;;7.35;5.78;;;;;;;-142.91;100.00;56616.03;4983031;28;20194;-70
2022/03/24 10:37:12;;;;;;;7.47;5.90;;;;;;;-142.91;100.00;56616.03;4982155;28;20227;-69
2022/03/24 10:39:54;;;;;;;9.30;6.20;;;;;;;-142.91;100.00;56616.03;4983578;28;20201;-70
2022/03/24 10:42:23;;;;;;;14.25;7.93;;;;;;;-142.91;100.00;56616.03;4982810;28;20212;-70
2022/03/24 10:45:06;;;;;;;8.43;6.05;;;;;;;-142.91;100.00;56616.03;4982073;28;20553;-70
2022/03/24 10:47:48;;;;;;;11.60;6.18;;;;;;;-142.91;100.00;56616.03;4982101;28;20200;-69
2022/03/24 10:50:28;;;;;;;12.02;7.15;;;;;;;-142.91;100.00;56616.03;4981816;28;20200;-67
2022/03/24 10:52:58;;;;;;;33.22;13.00;;;;;;;-142.91;100.00;56616.03;4982505;28;20341;-70
2022/03/24 10:55:34;;;;;;;5.88;5.28;;;;;;;-142.91;100.00;56616.03;4981335;28;20236;-70
2022/03/24 10:58:03;;;;;;;8.48;5.85;;;;;;;-142.91;100.00;56616.03;4981980;28;20559;-68
2022/03/24 11:00:30;;;;;;;11.30;7.10;;;;;;;-142.91;100.00;56616.03;4981715;28;20274;-69